createdAt,value
2022-10-17T00:01:29.300Z,101660.47
2022-10-17T00:04:02.446Z,101655.13
2022-10-17T00:06:32.355Z,101654.47
2022-10-17T00:09:02.313Z,101649.09
2022-10-17T00:11:32.195Z,101650.13
2022-10-17T00:14:02.162Z,101650.94
2022-10-17T00:16:37.284Z,101657.16
2022-10-17T00:19:07.698Z,101647.91
2022-10-17T00:21:37.537Z,101658.44
2022-10-17T00:24:08.605Z,101655.75
2022-10-17T00:26:38.882Z,101648.56
2022-10-17T00:29:09.130Z,101637.81
2022-10-17T00:31:41.632Z,101641.34
2022-10-17T00:34:11.409Z,101626.25
2022-10-17T00:36:41.332Z,101635.31
2022-10-17T00:39:12.153Z,101642.91
2022-10-17T00:41:42.437Z,101649.09
2022-10-17T00:44:42.048Z,101640.41
2022-10-17T00:47:18.719Z,101635.88
2022-10-17T00:49:51.100Z,101629.03
2022-10-17T00:52:26.778Z,101630.88
2022-10-17T00:55:01.486Z,101637.06
2022-10-17T00:57:35.768Z,101646.13
2022-10-17T01:00:09.687Z,101647.34
2022-10-17T01:02:42.406Z,101655.19
2022-10-17T01:05:13.468Z,101662.22
2022-10-17T01:07:47.742Z,101665.91
2022-10-17T01:10:18.051Z,101663.88
2022-10-17T01:13:09.174Z,101647.81
2022-10-17T01:15:53.255Z,101654.81
2022-10-17T01:18:38.123Z,101645.31
2022-10-17T01:21:30.398Z,101636.88
2022-10-17T01:24:30.245Z,101625.88
2022-10-17T01:27:31.943Z,101618.03
2022-10-17T01:30:25.298Z,101621.72
2022-10-17T01:33:01.419Z,101622.09
2022-10-17T01:35:38.595Z,101621.25
2022-10-17T01:38:15.918Z,101612.56
2022-10-17T01:40:52.344Z,101619.78
2022-10-17T01:43:28.651Z,101620.78
2022-10-17T01:46:04.756Z,101627.81
2022-10-17T01:48:41.915Z,101623.47
2022-10-17T01:51:18.870Z,101612.75
2022-10-17T01:53:54.939Z,101605.72
2022-10-17T01:56:28.754Z,101607.56
2022-10-17T01:59:03.355Z,101615.78
2022-10-17T02:01:37.063Z,101611.63
2022-10-17T02:04:13.936Z,101611.81
2022-10-17T02:06:46.244Z,101611.81
2022-10-17T02:09:22.211Z,101612.97
2022-10-17T02:12:13.357Z,101600.41
2022-10-17T02:14:59.837Z,101608.44
2022-10-17T02:17:41.537Z,101611.13
2022-10-17T02:20:23.296Z,101606.97
2022-10-17T02:22:59.394Z,101603.44
2022-10-17T02:25:38.618Z,101608.34
2022-10-17T02:28:22.463Z,101612.22
2022-10-17T02:30:57.550Z,101619.25
2022-10-17T02:33:32.268Z,101619.25
2022-10-17T02:36:09.029Z,101615.91
2022-10-17T02:38:39.535Z,101606.84
2022-10-17T02:41:18.377Z,101608.88
2022-10-17T02:43:51.401Z,101607.22
2022-10-17T02:46:24.114Z,101608.41
2022-10-17T02:48:56.273Z,101610.44
2022-10-17T02:51:34.116Z,101607.75
2022-10-17T02:54:10.314Z,101599.53
2022-10-17T02:56:46.273Z,101596.88
2022-10-17T02:59:20.362Z,101599.53
2022-10-17T03:01:51.651Z,101597.69
2022-10-17T03:04:22.719Z,101595.38
2022-10-17T03:06:55.344Z,101600.09
2022-10-17T03:09:26.320Z,101602.94
2022-10-17T03:11:58.916Z,101602.13
2022-10-17T03:14:28.673Z,101601.28
2022-10-17T03:17:01.641Z,101590.56
2022-10-17T03:19:31.462Z,101582.72
2022-10-17T03:22:04.202Z,101585.56
2022-10-17T03:24:35.659Z,101589.25
2022-10-17T03:27:05.788Z,101595.63
2022-10-17T03:29:35.756Z,101597.47
2022-10-17T03:32:07.287Z,101603.66
2022-10-17T03:34:37.676Z,101600.81
2022-10-17T03:37:10.325Z,101606.66
2022-10-17T03:39:42.420Z,101595.38
2022-10-17T03:42:15.222Z,101590.66
2022-10-17T03:44:45.248Z,101592.50
2022-10-17T03:47:16.083Z,101579.84
2022-10-17T03:49:47.374Z,101572.47
2022-10-17T03:52:21.721Z,101581.03
2022-10-17T03:54:52.662Z,101592.78
2022-10-17T03:57:22.573Z,101591.75
2022-10-17T03:59:54.217Z,101591.75
2022-10-17T04:02:24.830Z,101587.22
2022-10-17T04:04:55.414Z,101590.47
2022-10-17T04:07:27.889Z,101583.28
2022-10-17T04:09:57.829Z,101589.31
2022-10-17T04:12:28.349Z,101580.44
2022-10-17T04:14:58.386Z,101570.88
2022-10-17T04:17:28.954Z,101572.91
2022-10-17T04:19:58.778Z,101574.47
2022-10-17T04:22:31.380Z,101577.97
2022-10-17T04:25:01.384Z,101575.13
2022-10-17T04:27:37.653Z,101575.28
2022-10-17T04:30:08.748Z,101567.44
2022-10-17T04:32:40.326Z,101570.19
2022-10-17T04:35:22.608Z,101568.81
2022-10-17T04:38:05.993Z,101571.50
2022-10-17T04:40:35.780Z,101564.47
2022-10-17T04:43:05.778Z,101568.34
2022-10-17T04:45:39.152Z,101561.31
2022-10-17T04:48:09.988Z,101564.00
2022-10-17T04:50:39.909Z,101568.16
2022-10-17T04:53:46.220Z,101562.31
2022-10-17T04:56:19.425Z,101562.16
2022-10-17T04:58:49.834Z,101570.47
2022-10-17T05:01:22.021Z,101570.28
2022-10-17T05:03:56.065Z,101565.94
2022-10-17T05:06:28.311Z,101569.47
2022-10-17T05:09:30.754Z,101561.25
2022-10-17T05:12:01.104Z,101559.94
2022-10-17T05:14:33.218Z,101565.28
2022-10-17T05:17:03.629Z,101566.03
2022-10-17T05:19:33.456Z,101571.84
2022-10-17T05:22:03.368Z,101571.38
2022-10-17T05:24:35.727Z,101566.38
2022-10-17T05:27:06.550Z,101568.03
2022-10-17T05:29:37.195Z,101573.47
2022-10-17T05:32:16.167Z,101578.28
2022-10-17T05:34:46.316Z,101593.16
2022-10-17T05:37:16.476Z,101581.44
2022-10-17T05:39:53.641Z,101580.13
2022-10-17T05:42:23.572Z,101579.94
2022-10-17T05:44:53.361Z,101574.78
2022-10-17T05:47:23.311Z,101573.28
2022-10-17T05:49:53.107Z,101574.59
2022-10-17T05:52:33.002Z,101569.22
2022-10-17T05:55:15.462Z,101581.63
2022-10-17T05:57:45.524Z,101579.78
2022-10-17T06:00:19.848Z,101571.38
2022-10-17T06:02:58.285Z,101582.75
2022-10-17T06:05:28.242Z,101588.41
2022-10-17T06:08:01.915Z,101584.69
2022-10-17T06:10:36.888Z,101587.13
2022-10-17T06:13:07.201Z,101594.41
2022-10-17T06:15:37.863Z,101588.88
2022-10-17T06:18:10.590Z,101602.78
2022-10-17T06:20:45.249Z,101600.41
2022-10-17T06:23:17.283Z,101605.81
2022-10-17T06:26:01.622Z,101617.47
2022-10-17T06:28:32.598Z,101620.72
2022-10-17T06:31:02.572Z,101623.56
2022-10-17T06:33:32.583Z,101627.09
2022-10-17T06:36:02.725Z,101625.84
2022-10-17T06:38:34.163Z,101624.91
2022-10-17T06:41:10.142Z,101617.50
2022-10-17T06:43:40.924Z,101630.28
2022-10-17T06:46:31.086Z,101641.00
2022-10-17T06:49:04.742Z,101627.41
2022-10-17T06:51:46.529Z,101634.56
2022-10-17T06:54:19.064Z,101641.09
2022-10-17T06:57:10.267Z,101645.38
2022-10-17T06:59:53.411Z,101640.44
2022-10-17T07:02:28.734Z,101644.72
2022-10-17T07:05:01.642Z,101645.19
2022-10-17T07:07:33.507Z,101637.69
2022-10-17T07:10:04.378Z,101648.66
2022-10-17T07:12:37.159Z,101635.28
2022-10-17T07:15:07.895Z,101639.47
2022-10-17T07:17:37.841Z,101640.88
2022-10-17T07:20:08.567Z,101642.47
2022-10-17T07:22:40.501Z,101646.06
2022-10-17T07:25:12.209Z,101652.53
2022-10-17T07:27:51.835Z,101650.72
2022-10-17T07:30:21.838Z,101648.16
2022-10-17T07:33:11.845Z,101652.34
2022-10-17T07:35:43.698Z,101651.31
2022-10-17T07:38:14.292Z,101657.72
2022-10-17T07:40:48.353Z,101651.00
2022-10-17T07:43:21.000Z,101659.38
2022-10-17T07:45:51.094Z,101659.75
2022-10-17T07:48:21.723Z,101659.38
2022-10-17T07:50:53.764Z,101653.88
2022-10-17T07:53:25.723Z,101661.66
2022-10-17T07:55:55.547Z,101662.88
2022-10-17T07:58:29.018Z,101654.31
2022-10-17T08:03:52.649Z,101653.44
2022-10-17T08:06:22.487Z,101660.28
2022-10-17T08:08:52.461Z,101654.09
2022-10-17T08:11:23.301Z,101663.22
2022-10-17T08:13:58.963Z,101656.41
2022-10-17T08:16:28.719Z,101662.06
2022-10-17T08:18:58.831Z,101665.19
2022-10-17T08:21:31.690Z,101658.22
2022-10-17T08:24:02.858Z,101661.75
2022-10-17T08:26:33.007Z,101656.81
2022-10-17T08:29:05.555Z,101660.41
2022-10-17T08:31:35.620Z,101668.94
2022-10-17T08:34:05.509Z,101651.50
2022-10-17T08:36:37.380Z,101652.09
2022-10-17T08:39:07.904Z,101670.59
2022-10-17T08:41:52.207Z,101652.94
2022-10-17T08:44:37.065Z,101663.75
2022-10-17T08:47:14.453Z,101652.13
2022-10-17T08:49:52.676Z,101656.44
2022-10-17T08:52:32.025Z,101648.78
2022-10-17T08:55:01.973Z,101637.03
2022-10-17T08:57:32.358Z,101642.38
2022-10-17T09:00:05.569Z,101635.03
2022-10-17T09:02:47.752Z,101646.31
2022-10-17T09:05:39.891Z,101646.41
2022-10-17T09:08:22.361Z,101649.66
2022-10-17T09:11:00.169Z,101648.16
2022-10-17T09:13:45.064Z,101647.03
2022-10-17T09:16:37.308Z,101644.66
2022-10-17T09:19:12.789Z,101651.94
2022-10-17T09:21:49.196Z,101656.13
2022-10-17T09:24:25.388Z,101654.53
2022-10-17T09:26:57.360Z,101655.94
2022-10-17T09:29:35.357Z,101654.59
2022-10-17T09:32:17.796Z,101655.75
2022-10-17T09:34:48.050Z,101656.66
2022-10-17T09:37:19.995Z,101649.69
2022-10-17T09:39:49.810Z,101657.38
2022-10-17T09:42:23.703Z,101641.25
2022-10-17T09:44:59.934Z,101650.59
2022-10-17T09:47:42.015Z,101649.81
2022-10-17T09:50:21.531Z,101652.53
2022-10-17T09:52:51.941Z,101641.25
2022-10-17T09:55:25.172Z,101645.41
2022-10-17T09:57:58.348Z,101639.31
2022-10-17T10:00:32.551Z,101636.81
2022-10-17T10:03:19.176Z,101641.84
2022-10-17T10:06:03.526Z,101635.41
2022-10-17T10:08:35.445Z,101635.19
2022-10-17T10:11:13.407Z,101645.16
2022-10-17T10:13:45.103Z,101635.75
2022-10-17T10:16:24.467Z,101630.97
2022-10-17T10:18:56.819Z,101636.88
2022-10-17T10:21:28.609Z,101630.03
2022-10-17T10:24:14.651Z,101642.72
2022-10-17T10:26:48.830Z,101650.53
2022-10-17T10:29:30.826Z,101641.09
2022-10-17T10:32:10.155Z,101631.94
2022-10-17T10:34:53.534Z,101642.16
2022-10-17T10:37:26.613Z,101638.44
2022-10-17T10:39:59.373Z,101638.38
2022-10-17T10:42:32.683Z,101647.41
2022-10-17T10:45:09.419Z,101636.94
2022-10-17T10:47:56.343Z,101642.56
2022-10-17T10:50:36.334Z,101644.97
2022-10-17T10:53:19.185Z,101636.69
2022-10-17T10:55:53.525Z,101629.00
2022-10-17T10:58:40.288Z,101634.66
2022-10-17T11:01:20.928Z,101626.63
2022-10-17T11:04:00.464Z,101629.13
2022-10-17T11:06:38.799Z,101632.56
2022-10-17T11:09:20.203Z,101632.47
2022-10-17T11:11:58.455Z,101623.72
2022-10-17T11:14:41.156Z,101632.50
2022-10-17T11:17:22.607Z,101619.06
2022-10-17T11:19:59.564Z,101619.50
2022-10-17T11:22:35.324Z,101610.03
2022-10-17T11:25:15.817Z,101611.69
2022-10-17T11:27:45.577Z,101604.91
2022-10-17T11:30:18.260Z,101610.00
2022-10-17T11:32:53.853Z,101602.28
2022-10-17T11:35:28.844Z,101597.88
2022-10-17T11:38:21.399Z,101596.41
2022-10-17T11:40:54.375Z,101594.66
2022-10-17T11:43:29.506Z,101600.50
2022-10-17T11:46:04.982Z,101603.63
2022-10-17T11:48:41.733Z,101599.22
2022-10-17T11:54:09.454Z,101601.06
2022-10-17T11:56:47.486Z,101597.09
2022-10-17T11:59:45.271Z,101601.19
2022-10-17T12:02:24.640Z,101591.28
2022-10-17T12:05:02.324Z,101581.66
2022-10-17T12:07:41.037Z,101585.56
2022-10-17T12:10:24.970Z,101579.63
2022-10-17T12:12:54.835Z,101579.31
2022-10-17T12:15:33.915Z,101577.81
2022-10-17T12:18:05.318Z,101573.72
2022-10-17T12:20:38.336Z,101580.56
2022-10-17T12:23:29.521Z,101589.94
2022-10-17T12:26:05.421Z,101577.88
2022-10-17T12:28:43.542Z,101581.44
2022-10-17T12:31:32.543Z,101583.53
2022-10-17T12:34:05.805Z,101574.41
2022-10-17T12:36:50.635Z,101583.28
2022-10-17T12:39:55.210Z,101577.22
2022-10-17T12:42:50.764Z,101579.13
2022-10-17T12:45:48.585Z,101571.88
2022-10-17T12:48:48.245Z,101561.94
2022-10-17T12:51:37.329Z,101560.75
2022-10-17T12:54:15.231Z,101553.75
2022-10-17T12:56:47.301Z,101560.13
2022-10-17T12:59:24.071Z,101556.28
2022-10-17T13:01:58.260Z,101566.47
2022-10-17T13:04:31.181Z,101563.88
2022-10-17T13:07:02.556Z,101554.69
2022-10-17T13:09:35.388Z,101550.63
2022-10-17T13:12:09.490Z,101541.91
2022-10-17T13:14:46.379Z,101547.28
2022-10-17T13:17:26.032Z,101533.81
2022-10-17T13:19:56.530Z,101530.84
2022-10-17T13:22:28.913Z,101537.53
2022-10-17T13:25:10.016Z,101540.31
2022-10-17T13:27:40.381Z,101539.81
2022-10-17T13:30:32.148Z,101546.78
2022-10-17T13:33:02.699Z,101541.22
2022-10-17T13:35:58.892Z,101537.09
2022-10-17T13:38:29.728Z,101548.81
2022-10-17T13:41:06.089Z,101540.50
2022-10-17T13:43:50.566Z,101542.81
2022-10-17T13:46:39.959Z,101559.84
2022-10-17T13:49:25.860Z,101542.19
2022-10-17T13:51:58.853Z,101534.91
2022-10-17T13:54:38.034Z,101538.72
2022-10-17T13:57:09.672Z,101534.47
2022-10-17T13:59:42.803Z,101535.72
2022-10-17T14:02:19.984Z,101545.53
2022-10-17T14:05:15.629Z,101544.34
2022-10-17T14:08:09.393Z,101545.91
2022-10-17T14:10:36.994Z,101542.13
2022-10-17T14:13:09.051Z,101541.47
2022-10-17T14:15:39.999Z,101532.50
2022-10-17T14:18:21.655Z,101554.47
2022-10-17T14:21:34.323Z,101557.09
2022-10-17T14:23:45.201Z,101568.56
2022-10-17T14:26:18.340Z,101555.44
2022-10-17T14:28:51.103Z,101549.91
2022-10-17T14:31:32.493Z,101544.81
2022-10-17T14:34:07.550Z,101552.03
2022-10-17T14:36:42.077Z,101558.63
2022-10-17T14:39:22.432Z,101563.00
2022-10-17T14:41:53.808Z,101560.53
2022-10-17T14:44:28.561Z,101559.69
2022-10-17T14:47:18.370Z,101571.75
2022-10-17T14:50:06.704Z,101569.50
2022-10-17T14:52:38.967Z,101574.81
2022-10-17T14:55:26.012Z,101569.03
2022-10-17T14:57:55.735Z,101570.09
2022-10-17T15:00:26.881Z,101575.41
2022-10-17T15:02:58.264Z,101567.84
2022-10-17T15:05:30.686Z,101567.25
2022-10-17T15:08:00.532Z,101563.59
2022-10-17T15:10:37.097Z,101569.22
2022-10-17T15:13:27.303Z,101567.56
2022-10-17T15:15:57.244Z,101568.16
2022-10-17T15:18:27.060Z,101564.03
2022-10-17T15:21:06.468Z,101566.97
2022-10-17T15:23:47.503Z,101579.13
2022-10-17T15:26:19.001Z,101566.38
2022-10-17T15:28:50.205Z,101577.38
2022-10-17T15:31:21.612Z,101573.00
2022-10-17T15:33:52.238Z,101578.66
2022-10-17T15:36:27.641Z,101579.00
2022-10-17T15:38:59.830Z,101576.28
2022-10-17T15:41:32.324Z,101576.88
2022-10-17T15:44:02.678Z,101583.13
2022-10-17T15:46:35.544Z,101579.25
2022-10-17T15:49:08.664Z,101586.91
2022-10-17T15:51:41.306Z,101580.47
2022-10-17T15:54:14.155Z,101587.31
2022-10-17T15:56:46.301Z,101584.69
2022-10-17T15:59:19.768Z,101589.13
2022-10-17T16:01:49.820Z,101587.25
2022-10-17T16:04:19.933Z,101586.38
2022-10-17T16:06:52.430Z,101598.41
2022-10-17T16:09:22.430Z,101589.00
2022-10-17T16:12:01.536Z,101590.56
2022-10-17T16:14:32.514Z,101592.16
2022-10-17T16:17:02.993Z,101582.97
2022-10-17T16:19:35.066Z,101590.88
2022-10-17T16:22:08.225Z,101592.22
2022-10-17T16:24:40.372Z,101597.16
2022-10-17T16:27:11.258Z,101604.06
2022-10-17T16:29:42.008Z,101592.03
2022-10-17T16:32:13.136Z,101598.28
2022-10-17T16:34:43.044Z,101599.81
2022-10-17T16:37:15.405Z,101604.34
2022-10-17T16:39:49.181Z,101601.41
2022-10-17T16:42:19.105Z,101603.84
2022-10-17T16:44:49.273Z,101606.53
2022-10-17T16:47:19.403Z,101605.34
2022-10-17T16:49:49.397Z,101597.97
2022-10-17T16:52:21.865Z,101599.34
2022-10-17T16:54:51.903Z,101601.13
2022-10-17T16:57:21.953Z,101602.63
2022-10-17T16:59:52.195Z,101594.09
2022-10-17T17:02:21.975Z,101601.78
2022-10-17T17:04:51.848Z,101605.91
2022-10-17T17:07:24.606Z,101604.09
2022-10-17T17:09:57.098Z,101598.22
2022-10-17T17:12:27.097Z,101609.34
2022-10-17T17:14:57.038Z,101604.16
2022-10-17T17:17:37.065Z,101610.00
2022-10-17T17:20:16.846Z,101607.28
2022-10-17T17:22:50.902Z,101599.38
2022-10-17T17:25:20.706Z,101597.22
2022-10-17T17:27:50.475Z,101603.16
2022-10-17T17:30:20.720Z,101600.44
2022-10-17T17:32:50.610Z,101599.78
2022-10-17T17:35:20.913Z,101608.53
2022-10-17T17:37:53.213Z,101613.94
2022-10-17T17:40:23.149Z,101617.84
2022-10-17T17:42:52.992Z,101610.41
2022-10-17T17:45:22.782Z,101601.22
2022-10-17T17:47:53.968Z,101610.00
2022-10-17T17:50:23.833Z,101614.78
2022-10-17T17:52:56.188Z,101612.09
2022-10-17T17:55:25.949Z,101623.34
2022-10-17T17:57:56.679Z,101627.84
2022-10-17T18:00:26.572Z,101625.75
2022-10-17T18:02:56.426Z,101632.81
2022-10-17T18:05:47.384Z,101628.47
2022-10-17T18:08:27.778Z,101630.94
2022-10-17T18:10:58.795Z,101621.22
2022-10-17T18:13:28.661Z,101630.81
2022-10-17T18:15:59.688Z,101624.41
2022-10-17T18:18:31.239Z,101640.84
2022-10-17T18:21:04.210Z,101637.53
2022-10-17T18:23:40.229Z,101638.34
2022-10-17T18:26:10.525Z,101638.56
2022-10-17T18:31:35.875Z,101648.78
2022-10-17T18:34:07.429Z,101648.91
2022-10-17T18:36:38.016Z,101651.59
2022-10-17T18:39:10.531Z,101651.00
2022-10-17T18:41:40.679Z,101663.09
2022-10-17T18:44:12.404Z,101656.47
2022-10-17T18:46:43.090Z,101660.25
2022-10-17T18:49:15.204Z,101649.63
2022-10-17T18:51:48.668Z,101656.25
2022-10-17T18:54:24.553Z,101654.59
2022-10-17T18:56:56.474Z,101659.38
2022-10-17T18:59:26.265Z,101659.81
2022-10-17T19:01:56.309Z,101670.03
2022-10-17T19:04:26.288Z,101673.16
2022-10-17T19:06:56.101Z,101680.63
2022-10-17T19:09:28.863Z,101669.44
2022-10-17T19:12:00.244Z,101678.38
2022-10-17T19:14:31.448Z,101678.59
2022-10-17T19:17:02.501Z,101682.56
2022-10-17T19:19:32.539Z,101679.03
2022-10-17T19:22:03.679Z,101690.66
2022-10-17T19:24:36.022Z,101694.44
2022-10-17T19:27:06.904Z,101690.28
2022-10-17T19:29:36.814Z,101687.19
2022-10-17T19:32:14.117Z,101688.66
2022-10-17T19:34:46.663Z,101687.00
2022-10-17T19:37:16.429Z,101684.94
2022-10-17T19:39:48.753Z,101678.50
2022-10-17T19:42:18.461Z,101685.13
2022-10-17T19:44:48.633Z,101698.25
2022-10-17T19:47:18.374Z,101689.91
2022-10-17T19:49:50.147Z,101689.09
2022-10-17T19:52:20.026Z,101693.50
2022-10-17T19:54:52.426Z,101698.69
2022-10-17T19:57:22.137Z,101696.59
2022-10-17T19:59:53.745Z,101698.25
2022-10-17T20:02:26.126Z,101707.22
2022-10-17T20:05:13.818Z,101707.88
2022-10-17T20:07:45.669Z,101705.44
2022-10-17T20:10:19.005Z,101711.66
2022-10-17T20:12:48.994Z,101706.66
2022-10-17T20:15:18.983Z,101714.56
2022-10-17T20:17:48.826Z,101716.22
2022-10-17T20:20:18.730Z,101722.44
2022-10-17T20:22:48.476Z,101723.69
2022-10-17T20:25:20.932Z,101730.78
2022-10-17T20:27:50.731Z,101722.47
2022-10-17T20:30:20.658Z,101722.69
2022-10-17T20:32:55.149Z,101720.41
2022-10-17T20:35:25.906Z,101730.41
2022-10-17T20:37:55.673Z,101735.97
2022-10-17T20:40:35.852Z,101724.56
2022-10-17T20:43:06.659Z,101735.81
2022-10-17T20:45:50.728Z,101731.44
2022-10-17T20:48:21.767Z,101740.78
2022-10-17T20:50:52.184Z,101748.47
2022-10-17T20:53:36.532Z,101751.16
2022-10-17T20:56:12.383Z,101743.06
2022-10-17T20:58:42.174Z,101745.34
2022-10-17T21:01:13.337Z,101749.09
2022-10-17T21:03:46.375Z,101744.72
2022-10-17T21:06:17.115Z,101744.09
2022-10-17T21:08:47.732Z,101753.03
2022-10-17T21:11:21.635Z,101745.16
2022-10-17T21:13:57.341Z,101754.50
2022-10-17T21:16:27.722Z,101750.97
2022-10-17T21:18:58.276Z,101746.41
2022-10-17T21:21:29.783Z,101759.50
2022-10-17T21:24:01.619Z,101762.59
2022-10-17T21:26:37.009Z,101757.00
2022-10-17T21:29:07.876Z,101762.59
2022-10-17T21:31:40.192Z,101765.94
2022-10-17T21:34:11.533Z,101764.44
2022-10-17T21:36:42.275Z,101762.56
2022-10-17T21:39:13.438Z,101764.66
2022-10-17T21:41:47.194Z,101761.53
2022-10-17T21:44:19.463Z,101765.47
2022-10-17T21:46:50.026Z,101774.19
2022-10-17T21:49:22.238Z,101776.28
2022-10-17T21:51:52.554Z,101776.91
2022-10-17T21:54:24.046Z,101777.09
2022-10-17T21:56:56.550Z,101781.47
2022-10-17T21:59:26.489Z,101776.91
2022-10-17T22:01:56.291Z,101785.22
2022-10-17T22:04:28.334Z,101786.44
2022-10-17T22:06:58.215Z,101792.25
2022-10-17T22:09:28.763Z,101793.50
2022-10-17T22:12:01.108Z,101804.50
2022-10-17T22:14:31.229Z,101799.31
2022-10-17T22:17:01.521Z,101802.22
2022-10-17T22:19:31.239Z,101794.94
2022-10-17T22:22:01.048Z,101795.53
2022-10-17T22:24:33.170Z,101801.94
2022-10-17T22:27:09.207Z,101806.09
2022-10-17T22:29:39.697Z,101816.25
2022-10-17T22:32:09.731Z,101814.16
2022-10-17T22:34:39.598Z,101810.84
2022-10-17T22:37:09.515Z,101811.69
2022-10-17T22:39:39.402Z,101811.06
2022-10-17T22:42:12.038Z,101802.31
2022-10-17T22:44:41.844Z,101806.69
2022-10-17T22:47:11.744Z,101804.63
2022-10-17T22:49:41.539Z,101806.69
2022-10-17T22:52:11.278Z,101810.22
2022-10-17T22:54:41.008Z,101815.63
2022-10-17T22:57:13.904Z,101810.00
2022-10-17T22:59:43.878Z,101807.94
2022-10-17T23:02:13.705Z,101811.69
2022-10-17T23:04:46.963Z,101800.88
2022-10-17T23:07:17.127Z,101802.56
2022-10-17T23:09:49.849Z,101800.88
2022-10-17T23:12:22.522Z,101807.53
2022-10-17T23:14:52.289Z,101804.16
2022-10-17T23:17:22.087Z,101810.81
2022-10-17T23:19:54.162Z,101810.81
2022-10-17T23:22:26.863Z,101809.13
2022-10-17T23:24:56.544Z,101811.22
2022-10-17T23:29:59.925Z,101806.84
2022-10-17T23:32:29.811Z,101802.47
2022-10-17T23:34:59.767Z,101803.72
2022-10-17T23:37:29.673Z,101803.53
2022-10-17T23:39:59.552Z,101810.16
2022-10-17T23:42:31.843Z,101814.06
2022-10-17T23:45:01.762Z,101817.41
2022-10-17T23:47:31.724Z,101799.53
2022-10-17T23:50:01.731Z,101804.94
2022-10-17T23:52:31.572Z,101809.50
2022-10-17T23:55:01.416Z,101797.88
2022-10-17T23:57:34.259Z,101813.63
